Oakhurst, Oklahoma
Current Conditions -  °F | °C
As of 3:53 PM on Monday 22 Dec 2014 (Local Time) from KRVS Reporting Station
Overcast Overcast  
Wind Chill: 55°   Ceiling: 4100
Heat Index: 55°   Visibility: 10mi
Dew Point: 45°   Wind: 6mph
Humidity: 69%   Direction: NA
Pressure: 29.56"   Gusts: NA
Location:  36.08°N, 96.07°W
Report Text: KRVS 222153Z VRB05KT 10SM OVC041 13/07 A2956 RMK AO2 SLP011 T01280072
Loading
Personal Weather Stations






























Interactive Weather Map New forecast layout! Learn more

10-Day Weather Forecast

Advertisements
Track Severe Weather on mobile